createdAt,value
2018-08-22T00:00:33.356Z,71.22
2018-08-22T00:03:00.348Z,70.63
2018-08-22T00:05:27.369Z,71.52
2018-08-22T00:07:54.359Z,71.76
2018-08-22T00:10:28.333Z,70.88
2018-08-22T00:12:55.330Z,71.01
2018-08-22T00:15:22.322Z,70.49
2018-08-22T00:17:49.440Z,71.05
2018-08-22T00:20:16.437Z,70.57
2018-08-22T00:22:43.513Z,70.99
2018-08-22T00:25:10.725Z,71.64
2018-08-22T00:27:37.789Z,71.28
2018-08-22T00:30:05.456Z,70.86
2018-08-22T00:32:32.533Z,71.37
2018-08-22T00:34:59.515Z,70.76
2018-08-22T00:37:26.724Z,70.15
2018-08-22T00:39:53.712Z,70.54
2018-08-22T00:42:20.718Z,71.12
2018-08-22T00:44:47.755Z,71.28
2018-08-22T00:47:14.759Z,70.78
2018-08-22T00:49:41.852Z,71.48
2018-08-22T00:52:09.122Z,71.44
2018-08-22T00:54:36.112Z,71.78
2018-08-22T00:57:03.109Z,71.18
2018-08-22T00:59:30.118Z,71.63
2018-08-22T01:01:57.118Z,71.35
2018-08-22T01:04:24.349Z,71.79
2018-08-22T01:06:51.417Z,72.70
2018-08-22T01:09:18.435Z,72.38
2018-08-22T01:11:45.425Z,71.86
2018-08-22T01:14:12.420Z,72.08
2018-08-22T01:16:39.420Z,72.34
2018-08-22T01:19:06.409Z,72.27
2018-08-22T01:21:33.464Z,71.94
2018-08-22T01:24:00.595Z,71.99
2018-08-22T01:26:27.602Z,72.16
2018-08-22T01:28:54.664Z,72.50
2018-08-22T01:31:21.651Z,73.06
2018-08-22T01:33:48.717Z,72.75
2018-08-22T01:36:15.740Z,72.05
2018-08-22T01:38:42.955Z,72.78
2018-08-22T01:41:09.927Z,72.63
2018-08-22T01:43:36.964Z,72.53
2018-08-22T01:46:03.992Z,73.11
2018-08-22T01:48:30.984Z,73.08
2018-08-22T01:50:58.035Z,73.43
2018-08-22T01:53:25.018Z,72.71
2018-08-22T01:55:52.003Z,73.42
2018-08-22T01:58:19.197Z,73.05
2018-08-22T02:00:46.172Z,73.20
2018-08-22T02:03:13.196Z,73.31
2018-08-22T02:05:40.269Z,72.89
2018-08-22T02:08:07.259Z,73.00
2018-08-22T02:10:36.896Z,73.20
2018-08-22T02:13:03.945Z,74.26
2018-08-22T02:15:31.243Z,73.95
2018-08-22T02:17:58.276Z,74.77
2018-08-22T02:20:25.296Z,74.39
2018-08-22T02:22:52.391Z,73.83
2018-08-22T02:25:19.446Z,73.80
2018-08-22T02:27:46.403Z,73.73
2018-08-22T02:30:13.417Z,74.80
2018-08-22T02:32:40.420Z,74.54
2018-08-22T02:35:07.415Z,74.05
2018-08-22T02:37:34.444Z,74.46
2018-08-22T02:40:01.491Z,74.80
2018-08-22T02:42:28.506Z,75.74
2018-08-22T02:44:55.543Z,75.13
2018-08-22T02:47:22.515Z,75.32
2018-08-22T02:49:49.540Z,75.30
2018-08-22T02:52:16.563Z,75.51
2018-08-22T02:54:43.558Z,75.33
2018-08-22T02:57:10.565Z,75.90
2018-08-22T02:59:37.588Z,75.01
2018-08-22T03:02:04.652Z,75.70
2018-08-22T03:04:31.744Z,75.51
2018-08-22T03:06:58.732Z,75.14
2018-08-22T03:09:25.740Z,75.90
2018-08-22T03:11:52.845Z,75.92
2018-08-22T03:14:19.848Z,75.28
2018-08-22T03:16:47.135Z,75.97
2018-08-22T03:19:14.195Z,75.58
2018-08-22T03:21:41.168Z,75.94
2018-08-22T03:24:08.251Z,76.08
2018-08-22T03:26:42.284Z,75.68
2018-08-22T03:29:09.647Z,76.75
2018-08-22T03:31:36.608Z,76.38
2018-08-22T03:34:03.681Z,77.00
2018-08-22T03:36:30.695Z,76.51
2018-08-22T03:38:57.685Z,76.59
2018-08-22T03:41:24.664Z,76.31
2018-08-22T03:43:51.876Z,76.36
2018-08-22T03:46:18.927Z,77.52
2018-08-22T03:48:45.921Z,77.10
2018-08-22T03:51:12.941Z,76.88
2018-08-22T03:53:39.956Z,77.03
2018-08-22T03:56:06.944Z,76.97
2018-08-22T03:58:34.022Z,77.63
2018-08-22T04:01:01.054Z,76.97
2018-08-22T04:03:28.039Z,77.43
2018-08-22T04:05:55.124Z,77.79
2018-08-22T04:08:22.592Z,76.79
2018-08-22T04:10:49.603Z,77.41
2018-08-22T04:13:16.575Z,77.43
2018-08-22T04:15:43.648Z,77.58
2018-08-22T04:18:10.679Z,77.57
2018-08-22T04:20:37.687Z,77.73
2018-08-22T04:23:04.710Z,77.76
2018-08-22T04:25:31.726Z,77.94
2018-08-22T04:27:58.732Z,78.13
2018-08-22T04:30:25.721Z,78.01
2018-08-22T04:32:52.734Z,77.91
2018-08-22T04:35:19.744Z,77.95
2018-08-22T04:37:46.863Z,77.84
2018-08-22T04:40:13.853Z,77.73
2018-08-22T04:42:40.970Z,77.89
2018-08-22T04:45:07.960Z,78.53
2018-08-22T04:47:34.948Z,78.24
2018-08-22T04:50:01.958Z,77.56
2018-08-22T04:52:28.943Z,77.71
2018-08-22T04:54:55.935Z,77.98
2018-08-22T04:57:22.909Z,78.00
2018-08-22T04:59:50.183Z,78.03
2018-08-22T05:02:17.613Z,78.34
2018-08-22T05:04:44.662Z,78.54
2018-08-22T05:07:11.645Z,78.96
2018-08-22T05:09:38.668Z,81.64
2018-08-22T05:12:05.667Z,78.40
2018-08-22T05:14:32.673Z,78.30
2018-08-22T05:16:59.683Z,80.00
2018-08-22T05:19:26.676Z,76.39
2018-08-22T05:21:53.678Z,76.46
2018-08-22T05:24:20.782Z,76.40
2018-08-22T05:26:47.780Z,76.80
2018-08-22T05:29:14.796Z,76.29
2018-08-22T05:31:41.836Z,78.07
2018-08-22T05:34:08.819Z,76.19
2018-08-22T05:36:35.811Z,75.67
2018-08-22T05:39:05.295Z,76.12
2018-08-22T05:41:32.276Z,75.74
2018-08-22T05:43:59.260Z,74.86
2018-08-22T05:46:26.263Z,74.98
2018-08-22T05:48:53.241Z,74.45
2018-08-22T05:51:20.249Z,74.19
2018-08-22T05:53:47.267Z,73.74
2018-08-22T05:56:14.252Z,74.06
2018-08-22T05:58:41.280Z,73.02
2018-08-22T06:01:08.289Z,73.28
2018-08-22T06:03:35.343Z,72.50
2018-08-22T06:06:02.495Z,71.97
2018-08-22T06:08:29.479Z,72.41
2018-08-22T06:10:56.568Z,71.65
2018-08-22T06:13:23.547Z,71.36
2018-08-22T06:15:50.700Z,71.57
2018-08-22T06:18:17.864Z,70.47
2018-08-22T06:20:44.873Z,70.53
2018-08-22T06:23:11.851Z,71.11
2018-08-22T06:25:38.932Z,70.53
2018-08-22T06:28:06.034Z,70.00
2018-08-22T06:30:33.017Z,69.58
2018-08-22T06:33:00.046Z,69.24
2018-08-22T06:35:27.096Z,68.45
2018-08-22T06:37:54.116Z,68.33
2018-08-22T06:40:21.105Z,68.49
2018-08-22T06:42:48.101Z,67.50
2018-08-22T06:45:15.460Z,67.99
2018-08-22T06:47:42.435Z,66.08
2018-08-22T06:50:09.605Z,65.27
2018-08-22T06:52:36.911Z,65.32
2018-08-22T06:55:04.344Z,64.30
2018-08-22T06:57:31.619Z,64.26
2018-08-22T06:59:58.634Z,64.00
2018-08-22T07:02:25.664Z,63.17
2018-08-22T07:04:52.684Z,63.26
2018-08-22T07:07:19.787Z,62.85
2018-08-22T07:09:46.872Z,62.51
2018-08-22T07:12:13.924Z,61.50
2018-08-22T07:14:41.359Z,61.35
2018-08-22T07:17:08.351Z,60.83
2018-08-22T07:19:35.372Z,60.57
2018-08-22T07:22:02.535Z,59.55
2018-08-22T07:24:29.545Z,59.49
2018-08-22T07:26:56.620Z,59.06
2018-08-22T07:29:23.620Z,58.99
2018-08-22T07:31:53.038Z,58.59
2018-08-22T07:34:20.399Z,57.98
2018-08-22T07:36:47.390Z,58.77
2018-08-22T07:39:16.419Z,59.54
2018-08-22T07:41:43.458Z,57.89
2018-08-22T07:44:12.066Z,58.04
2018-08-22T07:46:39.140Z,57.66
2018-08-22T07:49:06.116Z,56.01
2018-08-22T07:51:33.217Z,55.73
2018-08-22T07:54:00.208Z,55.90
2018-08-22T07:56:28.300Z,56.57
2018-08-22T07:59:07.683Z,57.48
2018-08-22T08:01:35.319Z,56.12
2018-08-22T08:04:02.404Z,56.01
2018-08-22T08:06:29.394Z,55.82
2018-08-22T08:08:56.373Z,53.74
2018-08-22T08:11:23.369Z,54.72
2018-08-22T08:13:50.427Z,53.77
2018-08-22T08:16:17.616Z,54.03
2018-08-22T08:18:44.597Z,53.71
2018-08-22T08:21:11.575Z,53.16
2018-08-22T08:23:38.843Z,53.27
2018-08-22T08:26:05.929Z,52.49
2018-08-22T08:28:32.984Z,52.24
2018-08-22T08:31:00.058Z,51.96
2018-08-22T08:33:27.054Z,52.25
2018-08-22T08:35:54.057Z,52.86
2018-08-22T08:38:21.071Z,52.35
2018-08-22T08:40:48.113Z,51.67
2018-08-22T08:43:15.153Z,51.35
2018-08-22T08:45:42.084Z,51.14
2018-08-22T08:48:09.068Z,51.41
2018-08-22T08:50:36.125Z,51.64
2018-08-22T08:53:03.104Z,51.32
2018-08-22T08:55:30.388Z,51.88
2018-08-22T08:57:57.368Z,51.10
2018-08-22T09:00:24.452Z,51.96
2018-08-22T09:02:51.461Z,51.56
2018-08-22T09:05:18.564Z,51.01
2018-08-22T09:07:45.541Z,50.68
2018-08-22T09:10:12.668Z,51.42
2018-08-22T09:12:39.654Z,49.97
2018-08-22T09:15:07.053Z,50.04
2018-08-22T09:17:34.254Z,48.62
2018-08-22T09:20:01.282Z,48.74
2018-08-22T09:22:28.381Z,48.87
2018-08-22T09:24:55.553Z,48.36
2018-08-22T09:27:22.538Z,48.57
2018-08-22T09:29:50.572Z,48.07
2018-08-22T09:32:17.585Z,47.91
2018-08-22T09:34:44.804Z,46.93
2018-08-22T09:37:11.799Z,47.79
2018-08-22T09:39:38.943Z,47.06
2018-08-22T09:42:05.884Z,47.63
2018-08-22T09:44:32.913Z,46.71
2018-08-22T09:46:59.907Z,46.68
2018-08-22T09:49:26.912Z,45.19
2018-08-22T09:51:53.920Z,46.13
2018-08-22T09:54:20.937Z,46.82
2018-08-22T09:56:47.919Z,45.50
2018-08-22T09:59:14.992Z,45.05
2018-08-22T10:01:43.313Z,45.95
2018-08-22T10:04:12.121Z,46.90
2018-08-22T10:06:44.629Z,45.96
2018-08-22T10:09:13.752Z,45.46
2018-08-22T10:11:40.789Z,46.29
2018-08-22T10:14:07.803Z,45.41
2018-08-22T10:16:34.887Z,44.20
2018-08-22T10:19:03.790Z,44.30
2018-08-22T10:21:31.556Z,44.64
2018-08-22T10:23:59.583Z,44.40
2018-08-22T10:26:27.551Z,44.77
2018-08-22T10:28:55.500Z,43.39
2018-08-22T10:31:24.424Z,43.88
2018-08-22T10:33:52.289Z,43.68
2018-08-22T10:36:19.563Z,43.85
2018-08-22T10:38:47.915Z,43.46
2018-08-22T10:41:14.920Z,43.37
2018-08-22T10:43:42.255Z,43.23
2018-08-22T10:46:09.520Z,43.88
2018-08-22T10:48:36.548Z,43.48
2018-08-22T10:51:03.628Z,43.43
2018-08-22T10:53:30.793Z,44.27
2018-08-22T10:55:57.974Z,42.89
2018-08-22T10:58:25.766Z,43.27
2018-08-22T11:00:53.641Z,41.98
2018-08-22T11:03:20.697Z,42.56
2018-08-22T11:05:47.695Z,42.59
2018-08-22T11:08:14.699Z,43.06
2018-08-22T11:10:41.853Z,43.06
2018-08-22T11:13:10.013Z,42.27
2018-08-22T11:15:37.078Z,41.69
2018-08-22T11:18:04.255Z,40.83
2018-08-22T11:20:31.487Z,41.08
2018-08-22T11:23:10.296Z,42.76
2018-08-22T11:25:49.127Z,40.90
2018-08-22T11:28:27.916Z,40.94
2018-08-22T11:31:06.401Z,40.39
2018-08-22T11:33:45.144Z,41.02
2018-08-22T11:36:11.208Z,40.31
2018-08-22T11:38:38.296Z,40.59
2018-08-22T11:41:05.372Z,40.00
2018-08-22T11:43:32.681Z,40.67
2018-08-22T11:45:59.770Z,41.23
2018-08-22T11:48:26.764Z,41.12
2018-08-22T11:50:53.751Z,39.45
2018-08-22T11:53:20.893Z,39.50
2018-08-22T11:55:48.151Z,39.98
2018-08-22T11:58:15.167Z,39.40
2018-08-22T12:00:42.229Z,41.03
2018-08-22T12:03:09.315Z,40.46
2018-08-22T12:05:36.319Z,39.60
2018-08-22T12:08:03.380Z,39.93
2018-08-22T12:10:30.788Z,39.49
2018-08-22T12:12:58.724Z,38.96
2018-08-22T12:15:25.736Z,39.22
2018-08-22T12:17:52.723Z,39.27
2018-08-22T12:20:19.736Z,39.01
2018-08-22T12:22:46.716Z,37.67
2018-08-22T12:25:13.871Z,39.00
2018-08-22T12:27:41.092Z,38.82
2018-08-22T12:30:08.128Z,37.92
2018-08-22T12:32:35.224Z,36.64
2018-08-22T12:35:02.256Z,36.74
2018-08-22T12:37:29.351Z,37.60
2018-08-22T12:39:56.456Z,37.76
2018-08-22T12:42:23.547Z,37.64
2018-08-22T12:44:50.673Z,37.14
2018-08-22T12:47:18.169Z,35.57
2018-08-22T12:49:45.176Z,33.92
2018-08-22T12:52:12.185Z,35.02
2018-08-22T12:54:39.174Z,34.59
2018-08-22T12:57:06.211Z,34.31
2018-08-22T12:59:33.204Z,34.90
2018-08-22T13:02:06.984Z,33.50
2018-08-22T13:04:34.012Z,32.35
2018-08-22T13:07:00.996Z,32.22
2018-08-22T13:09:28.005Z,32.45
2018-08-22T13:11:55.013Z,31.86
2018-08-22T13:14:22.071Z,33.38
2018-08-22T13:16:49.076Z,33.45
2018-08-22T13:19:16.180Z,33.15
2018-08-22T13:21:43.301Z,32.62
2018-08-22T13:24:10.422Z,31.99
2018-08-22T13:26:37.544Z,32.47
2018-08-22T13:29:04.675Z,32.40
2018-08-22T13:31:31.756Z,31.46
2018-08-22T13:33:58.813Z,31.21
2018-08-22T13:36:25.929Z,31.41
2018-08-22T13:38:52.940Z,30.92
2018-08-22T13:41:20.035Z,31.09
2018-08-22T13:43:47.015Z,31.12
2018-08-22T13:46:14.203Z,30.29
2018-08-22T13:48:41.204Z,28.84
2018-08-22T13:51:08.223Z,29.04
2018-08-22T13:53:35.227Z,30.57
2018-08-22T13:56:02.315Z,30.66
2018-08-22T13:58:29.263Z,32.26
2018-08-22T14:00:56.332Z,30.30
2018-08-22T14:03:23.532Z,29.99
2018-08-22T14:05:50.612Z,31.81
2018-08-22T14:08:17.609Z,31.21
2018-08-22T14:10:44.783Z,30.82
2018-08-22T14:13:11.960Z,30.63
2018-08-22T14:15:39.031Z,30.79
2018-08-22T14:18:06.103Z,31.31
2018-08-22T14:20:33.224Z,30.57
2018-08-22T14:23:00.244Z,32.02
2018-08-22T14:25:27.273Z,30.04
2018-08-22T14:27:54.448Z,31.92
2018-08-22T14:30:21.467Z,31.45
2018-08-22T14:32:48.459Z,30.53
2018-08-22T14:35:15.454Z,31.58
2018-08-22T14:37:42.471Z,32.62
2018-08-22T14:40:09.497Z,31.67
2018-08-22T14:42:36.474Z,32.42
2018-08-22T14:45:03.963Z,32.54
2018-08-22T14:47:31.039Z,32.51
2018-08-22T14:49:58.115Z,32.08
2018-08-22T14:52:25.203Z,32.47
2018-08-22T14:54:52.184Z,32.97
2018-08-22T14:57:19.305Z,33.99
2018-08-22T14:59:46.319Z,32.89
2018-08-22T15:02:13.339Z,35.25
2018-08-22T15:04:40.611Z,34.64
2018-08-22T15:07:07.607Z,34.40
2018-08-22T15:09:34.827Z,33.08
2018-08-22T15:12:01.832Z,35.97
2018-08-22T15:14:29.129Z,33.75
2018-08-22T15:16:56.135Z,33.90
2018-08-22T15:19:23.276Z,34.56
2018-08-22T15:21:50.203Z,36.30
2018-08-22T15:24:17.224Z,34.29
2018-08-22T15:26:44.300Z,34.86
2018-08-22T15:29:11.425Z,33.71
2018-08-22T15:31:38.427Z,36.05
2018-08-22T15:34:05.522Z,34.27
2018-08-22T15:36:34.089Z,33.49
2018-08-22T15:39:01.135Z,33.74
2018-08-22T15:41:28.144Z,32.80
2018-08-22T15:43:55.156Z,33.36
2018-08-22T15:46:22.155Z,33.30
2018-08-22T15:48:49.516Z,33.37
2018-08-22T15:51:16.503Z,33.42
2018-08-22T15:53:44.135Z,34.11
2018-08-22T15:56:11.115Z,33.51
2018-08-22T15:58:38.107Z,33.76
2018-08-22T16:01:05.231Z,33.96
2018-08-22T16:03:38.963Z,34.54
2018-08-22T16:06:05.986Z,33.85
2018-08-22T16:08:32.994Z,35.21
2018-08-22T16:11:04.741Z,34.43
2018-08-22T16:13:32.075Z,34.58
2018-08-22T16:16:01.057Z,35.33
2018-08-22T16:18:28.088Z,34.53
2018-08-22T16:20:59.200Z,36.42
2018-08-22T16:23:28.669Z,34.68
2018-08-22T16:25:56.823Z,36.01
2018-08-22T16:28:24.369Z,35.64
2018-08-22T16:30:57.042Z,36.68
2018-08-22T16:33:19.720Z,35.13
2018-08-22T16:35:46.740Z,35.80
2018-08-22T16:38:14.317Z,38.34
2018-08-22T16:40:43.524Z,36.28
2018-08-22T16:43:10.535Z,37.30
2018-08-22T16:45:44.139Z,35.92
2018-08-22T16:48:12.052Z,38.77
2018-08-22T16:50:39.121Z,38.25
2018-08-22T16:53:06.120Z,39.45
2018-08-22T16:55:33.216Z,37.10
2018-08-22T16:58:00.241Z,38.41
2018-08-22T17:00:34.369Z,37.81
2018-08-22T17:03:02.623Z,39.07
2018-08-22T17:05:29.679Z,37.32
2018-08-22T17:07:57.427Z,37.29
2018-08-22T17:10:28.865Z,38.49
2018-08-22T17:12:56.046Z,38.18
2018-08-22T17:15:23.123Z,38.41
2018-08-22T17:17:50.027Z,39.70
2018-08-22T17:20:17.029Z,38.05
2018-08-22T17:22:44.007Z,38.96
2018-08-22T17:25:13.709Z,39.37
2018-08-22T17:27:40.971Z,40.34
2018-08-22T17:30:07.947Z,39.38
2018-08-22T17:32:34.925Z,39.60
2018-08-22T17:35:01.926Z,39.07
2018-08-22T17:37:29.001Z,39.70
2018-08-22T17:39:55.972Z,41.10
2018-08-22T17:42:22.964Z,40.83
2018-08-22T17:44:49.991Z,41.21
2018-08-22T17:47:17.001Z,40.88
2018-08-22T17:49:54.472Z,41.03
2018-08-22T17:52:21.539Z,41.37
2018-08-22T17:54:48.520Z,41.76
2018-08-22T17:57:24.616Z,41.73
2018-08-22T17:59:51.708Z,41.90
2018-08-22T18:02:18.811Z,42.57
2018-08-22T18:05:01.613Z,41.80
2018-08-22T18:07:28.700Z,42.06
2018-08-22T18:09:55.708Z,42.62
2018-08-22T18:12:23.749Z,42.80
2018-08-22T18:14:50.739Z,43.01
2018-08-22T18:17:18.440Z,43.19
2018-08-22T18:19:45.551Z,43.36
2018-08-22T18:22:12.579Z,43.44
2018-08-22T18:24:45.364Z,43.83
2018-08-22T18:27:12.419Z,44.33
2018-08-22T18:29:41.988Z,44.87
2018-08-22T18:32:09.344Z,45.11
2018-08-22T18:34:48.933Z,45.54
2018-08-22T18:37:16.253Z,45.06
2018-08-22T18:39:43.260Z,45.34
2018-08-22T18:42:10.332Z,47.91
2018-08-22T18:44:37.370Z,47.76
2018-08-22T18:47:04.373Z,49.19
2018-08-22T18:49:31.345Z,50.09
2018-08-22T18:51:58.426Z,50.14
2018-08-22T18:54:26.139Z,50.86
2018-08-22T18:56:53.191Z,51.65
2018-08-22T18:59:26.645Z,52.22
2018-08-22T19:01:54.292Z,51.22
2018-08-22T19:04:21.426Z,50.75
2018-08-22T19:06:48.450Z,50.30
2018-08-22T19:09:15.529Z,50.07
2018-08-22T19:11:42.508Z,52.11
2018-08-22T19:14:09.589Z,49.84
2018-08-22T19:16:36.556Z,51.38
2018-08-22T19:19:03.580Z,50.65
2018-08-22T19:21:30.565Z,50.46
2018-08-22T19:24:04.585Z,50.95
2018-08-22T19:26:32.073Z,50.39
2018-08-22T19:29:00.919Z,50.53
2018-08-22T19:31:28.389Z,50.25
2018-08-22T19:33:55.475Z,51.36
2018-08-22T19:36:22.462Z,51.05
2018-08-22T19:38:49.562Z,52.03
2018-08-22T19:41:32.128Z,51.30
2018-08-22T19:43:59.398Z,50.99
2018-08-22T19:46:26.766Z,51.12
2018-08-22T19:48:53.773Z,51.05
2018-08-22T19:51:21.040Z,50.94
2018-08-22T19:53:55.582Z,51.51
2018-08-22T19:56:22.874Z,50.72
2018-08-22T19:58:50.256Z,51.25
2018-08-22T20:01:19.415Z,51.21
2018-08-22T20:03:49.045Z,50.06
2018-08-22T20:06:16.029Z,51.77
2018-08-22T20:08:43.051Z,51.42
2018-08-22T20:11:10.193Z,52.08
2018-08-22T20:13:46.803Z,53.40
2018-08-22T20:16:14.174Z,52.73
2018-08-22T20:18:41.262Z,54.65
2018-08-22T20:21:10.946Z,53.78
2018-08-22T20:23:38.031Z,55.47
2018-08-22T20:26:05.139Z,54.76
2018-08-22T20:28:33.296Z,55.38
2018-08-22T20:31:05.923Z,56.53
2018-08-22T20:33:33.118Z,56.76
2018-08-22T20:36:00.111Z,55.48
2018-08-22T20:38:27.109Z,55.35
2018-08-22T20:40:58.799Z,55.41
2018-08-22T20:43:27.768Z,55.63
2018-08-22T20:45:54.836Z,56.32
2018-08-22T20:48:21.911Z,55.68
2018-08-22T20:50:48.903Z,56.37
2018-08-22T20:53:16.939Z,55.89
2018-08-22T20:55:43.963Z,56.22
2018-08-22T20:58:30.519Z,55.89
2018-08-22T21:00:58.783Z,56.16
2018-08-22T21:03:25.764Z,57.38
2018-08-22T21:05:52.739Z,56.01
2018-08-22T21:08:19.804Z,56.56
2018-08-22T21:10:46.723Z,55.88
2018-08-22T21:13:18.384Z,55.67
2018-08-22T21:15:45.440Z,56.55
2018-08-22T21:18:12.524Z,54.69
2018-08-22T21:20:39.576Z,54.93
2018-08-22T21:23:06.655Z,54.47
2018-08-22T21:25:33.767Z,56.14
2018-08-22T21:28:00.847Z,56.90
2018-08-22T21:30:27.975Z,57.12
2018-08-22T21:32:54.920Z,58.29
2018-08-22T21:35:23.709Z,59.22
2018-08-22T21:37:50.763Z,60.59
2018-08-22T21:40:17.829Z,60.59
2018-08-22T21:42:44.827Z,63.06
2018-08-22T21:45:11.848Z,63.31
2018-08-22T21:47:38.981Z,64.58
2018-08-22T21:50:06.076Z,63.88
2018-08-22T21:53:04.505Z,64.55
2018-08-22T21:55:37.743Z,65.25
2018-08-22T21:58:06.016Z,64.71
2018-08-22T22:00:33.063Z,60.61
2018-08-22T22:03:00.076Z,62.68
2018-08-22T22:05:39.529Z,65.60
2018-08-22T22:08:07.110Z,63.25
2018-08-22T22:10:34.195Z,62.03
2018-08-22T22:13:01.297Z,63.33
2018-08-22T22:15:34.054Z,63.68
2018-08-22T22:18:01.131Z,63.06
2018-08-22T22:20:28.339Z,64.99
2018-08-22T22:22:55.332Z,63.96
2018-08-22T22:25:22.366Z,63.77
2018-08-22T22:27:49.450Z,63.90
2018-08-22T22:30:16.456Z,63.49
2018-08-22T22:32:43.453Z,64.78
2018-08-22T22:35:10.444Z,63.72
2018-08-22T22:37:37.456Z,65.97
2018-08-22T22:40:04.836Z,65.16
2018-08-22T22:42:31.821Z,64.80
2018-08-22T22:44:59.502Z,65.44
2018-08-22T22:47:29.704Z,64.45
2018-08-22T22:49:57.363Z,65.20
2018-08-22T22:52:30.591Z,65.28
2018-08-22T22:58:19.880Z,65.50
2018-08-22T23:00:47.037Z,65.51
2018-08-22T23:03:14.028Z,66.79
2018-08-22T23:05:41.154Z,67.32
2018-08-22T23:08:08.158Z,67.67
2018-08-22T23:10:35.157Z,67.59
2018-08-22T23:13:02.287Z,68.34
2018-08-22T23:15:30.217Z,68.55
2018-08-22T23:17:59.608Z,70.09
2018-08-22T23:20:38.821Z,70.32
2018-08-22T23:23:21.836Z,70.30
2018-08-22T23:25:49.214Z,70.42
2018-08-22T23:28:16.280Z,70.36
2018-08-22T23:30:43.272Z,72.13
2018-08-22T23:33:10.453Z,72.36
2018-08-22T23:35:37.472Z,71.46
2018-08-22T23:38:08.494Z,72.22
2018-08-22T23:40:35.805Z,72.83
2018-08-22T23:43:03.032Z,73.35
2018-08-22T23:45:30.109Z,72.58
2018-08-22T23:47:57.129Z,73.93
2018-08-22T23:50:31.502Z,73.93
2018-08-22T23:52:58.489Z,74.05
2018-08-22T23:55:25.500Z,74.33
2018-08-22T23:57:54.948Z,74.15
